createdAt,value
2023-03-03T00:00:02.150Z,0.88
2023-03-03T00:06:20.176Z,0.88
2023-03-03T00:12:43.224Z,0.85
2023-03-03T00:19:03.218Z,0.83
2023-03-03T00:25:26.169Z,0.66
2023-03-03T00:31:46.168Z,0.56
2023-03-03T00:38:09.253Z,0.59
2023-03-03T00:44:29.188Z,0.55
2023-03-03T00:50:52.221Z,0.43
2023-03-03T00:57:12.173Z,0.42
2023-03-03T01:03:35.307Z,0.33
2023-03-03T01:09:55.199Z,0.29
2023-03-03T01:16:18.237Z,0.2
2023-03-03T01:22:38.166Z,0.19
2023-03-03T01:29:01.225Z,0.17
2023-03-03T01:35:21.436Z,0.05
2023-03-03T01:41:44.239Z,-0.01
2023-03-03T01:48:04.200Z,-0.13
2023-03-03T01:54:27.216Z,-0.16
2023-03-03T02:00:47.160Z,-0.11
2023-03-03T02:07:10.186Z,-0.11
2023-03-03T02:13:30.219Z,-0.14
2023-03-03T02:19:53.229Z,-0.21
2023-03-03T02:26:13.211Z,-0.34
2023-03-03T02:32:36.299Z,-0.4
2023-03-03T02:38:56.226Z,-0.41
2023-03-03T02:45:19.240Z,-0.41
2023-03-03T02:51:39.431Z,-0.49
2023-03-03T02:58:02.244Z,-0.58
2023-03-03T03:04:22.272Z,-0.62
2023-03-03T03:10:45.210Z,-0.63
2023-03-03T03:17:05.142Z,-0.68
2023-03-03T03:23:28.174Z,-0.69
2023-03-03T03:29:48.214Z,-0.74
2023-03-03T03:36:11.205Z,-0.81
2023-03-03T03:42:31.176Z,-0.93
2023-03-03T03:48:54.194Z,-1.01
2023-03-03T03:55:14.249Z,-1.07
2023-03-03T04:01:37.208Z,-1.1
2023-03-03T04:07:57.250Z,-1.14
2023-03-03T04:31:03.260Z,-1.37
2023-03-03T04:37:26.172Z,-1.3
2023-03-03T04:43:46.192Z,-1.23
2023-03-03T04:50:09.224Z,-1.17
2023-03-03T04:56:29.263Z,-1.18
2023-03-03T05:02:52.170Z,-1.16
2023-03-03T05:09:12.255Z,-1.1
2023-03-03T05:15:35.259Z,-1.15
2023-03-03T05:21:55.193Z,-1.19
2023-03-03T05:28:18.237Z,-1.12
2023-03-03T05:34:38.247Z,-1.01
2023-03-03T05:41:01.232Z,-1.03
2023-03-03T05:47:21.237Z,-0.98
2023-03-03T05:53:44.191Z,-0.89
2023-03-03T06:00:04.207Z,-0.79
2023-03-03T06:06:27.277Z,-0.64
2023-03-03T06:12:47.268Z,-0.49
2023-03-03T06:19:10.291Z,-0.35
2023-03-03T06:25:30.256Z,-0.22
2023-03-03T06:31:53.386Z,-0.15
2023-03-03T06:38:13.226Z,-0.01
2023-03-03T06:44:36.320Z,0.17
2023-03-03T06:50:56.296Z,0.32
2023-03-03T06:57:19.144Z,0.36
2023-03-03T07:03:39.188Z,0.43
2023-03-03T07:10:02.194Z,0.46
2023-03-03T07:16:22.286Z,0.48
2023-03-03T07:22:45.187Z,0.53
2023-03-03T07:29:05.253Z,0.56
2023-03-03T07:35:28.230Z,0.59
2023-03-03T07:41:48.194Z,0.64
2023-03-03T07:48:11.275Z,0.75
2023-03-03T07:54:31.256Z,0.83
2023-03-03T08:00:54.324Z,0.96
2023-03-03T08:07:14.235Z,1.03
2023-03-03T08:13:37.177Z,1.19
2023-03-03T08:19:57.234Z,1.31
2023-03-03T08:26:20.182Z,1.46
2023-03-03T08:32:40.291Z,1.56
2023-03-03T08:39:03.291Z,1.69
2023-03-03T08:45:23.245Z,1.71
2023-03-03T08:51:46.254Z,1.53
2023-03-03T08:58:06.282Z,1.44
2023-03-03T09:04:29.283Z,1.34
2023-03-03T09:10:49.263Z,1.3
2023-03-03T09:17:12.411Z,1.37
2023-03-03T09:33:19.105Z,1.51
2023-03-03T09:39:40.152Z,1.46
2023-03-03T09:46:03.155Z,1.43
2023-03-03T09:52:23.197Z,1.44
2023-03-03T09:58:46.215Z,1.53
2023-03-03T10:05:06.344Z,1.52
2023-03-03T10:11:29.221Z,1.62
2023-03-03T10:17:49.204Z,1.73
2023-03-03T10:24:12.266Z,1.93
2023-03-03T10:30:41.013Z,2.14
2023-03-03T10:36:55.252Z,2.27
2023-03-03T10:43:26.026Z,2.25
2023-03-03T10:49:38.215Z,2.46
2023-03-03T10:55:58.625Z,2.64
2023-03-03T11:02:21.203Z,2.81
2023-03-03T11:08:41.320Z,2.79
2023-03-03T11:15:04.263Z,2.81
2023-03-03T11:21:24.262Z,3.02
2023-03-03T11:27:47.278Z,3.11
2023-03-03T11:34:07.227Z,3.15
2023-03-03T11:40:30.225Z,3.2
2023-03-03T11:46:50.273Z,3.32
2023-03-03T11:53:13.189Z,3.55
2023-03-03T11:59:33.321Z,3.7
2023-03-03T12:05:56.640Z,3.94
2023-03-03T12:12:16.440Z,4.03
2023-03-03T12:18:39.256Z,4.43
2023-03-03T12:24:59.407Z,4.52
2023-03-03T12:31:22.406Z,4.55
2023-03-03T12:37:42.331Z,4.81
2023-03-03T12:44:05.397Z,5.28
2023-03-03T12:50:25.430Z,5.65
2023-03-03T12:56:48.335Z,6.09
2023-03-03T13:03:08.410Z,6.43
2023-03-03T13:09:31.359Z,6.35
2023-03-03T13:15:55.627Z,6.33
2023-03-03T13:22:14.378Z,6.62
2023-03-03T13:28:34.372Z,6.87
2023-03-03T13:34:57.345Z,6.94
2023-03-03T13:41:17.420Z,6.98
2023-03-03T13:47:40.342Z,7.06
2023-03-03T13:54:00.349Z,7.11
2023-03-03T14:00:23.415Z,7.11
2023-03-03T14:06:43.354Z,7.21
2023-03-03T14:13:06.360Z,7.09
2023-03-03T14:19:26.354Z,6.98
2023-03-03T14:25:49.380Z,6.9
2023-03-03T14:41:39.107Z,6.52
2023-03-03T14:47:59.339Z,6.34
2023-03-03T14:54:22.324Z,6.38
2023-03-03T15:00:42.441Z,6.41
2023-03-03T15:07:05.381Z,6.26
2023-03-03T15:13:25.389Z,6.29
2023-03-03T15:19:49.451Z,6.18
2023-03-03T15:26:10.430Z,6.27
2023-03-03T15:32:33.681Z,6.3
2023-03-03T15:38:54.342Z,6.09
2023-03-03T15:45:17.503Z,5.93
2023-03-03T15:51:38.362Z,5.75
2023-03-03T15:58:01.605Z,5.61
2023-03-03T16:04:22.387Z,5.46
2023-03-03T16:10:45.409Z,5.33
2023-03-03T16:17:05.407Z,5.2
2023-03-03T16:23:28.260Z,5.06
2023-03-03T16:29:48.207Z,4.98
2023-03-03T16:36:11.234Z,4.84
2023-03-03T16:42:31.217Z,4.61
2023-03-03T16:48:54.178Z,4.4
2023-03-03T16:55:14.195Z,4.26
2023-03-03T17:01:37.199Z,4.21
2023-03-03T17:07:57.223Z,4.09
2023-03-03T17:14:20.264Z,3.94
2023-03-03T17:20:40.234Z,3.76
2023-03-03T17:27:03.144Z,3.61
2023-03-03T17:33:23.205Z,3.53
2023-03-03T17:39:46.157Z,3.43
2023-03-03T17:46:06.290Z,3.34
2023-03-03T17:52:29.280Z,3.25
2023-03-03T17:58:49.221Z,3.11
2023-03-03T18:05:12.166Z,3.01
2023-03-03T18:11:32.256Z,2.84
2023-03-03T18:17:55.195Z,2.72
2023-03-03T18:24:15.160Z,2.67
2023-03-03T18:30:38.446Z,2.56
2023-03-03T18:36:58.194Z,2.47
2023-03-03T18:43:21.221Z,2.37
2023-03-03T18:49:41.314Z,2.28
2023-03-03T18:56:04.184Z,2.19
2023-03-03T19:02:24.206Z,2.09
2023-03-03T19:08:47.168Z,1.99
2023-03-03T19:15:07.281Z,1.93
2023-03-03T19:21:30.281Z,1.91
2023-03-03T19:27:50.336Z,1.91
2023-03-03T19:51:13.185Z,1.92
2023-03-03T19:57:36.163Z,1.76
2023-03-03T20:03:56.174Z,1.61
2023-03-03T20:10:19.237Z,1.55
2023-03-03T20:16:39.252Z,1.62
2023-03-03T20:23:03.695Z,1.6
2023-03-03T20:29:22.264Z,1.43
2023-03-03T20:35:45.293Z,1.27
2023-03-03T20:42:05.244Z,1.15
2023-03-03T20:48:28.248Z,0.99
2023-03-03T20:54:48.515Z,0.83
2023-03-03T21:01:11.260Z,0.69
2023-03-03T21:07:31.666Z,0.62
2023-03-03T21:13:54.425Z,0.52
2023-03-03T21:20:14.338Z,0.41
2023-03-03T21:26:37.236Z,0.39
2023-03-03T21:32:57.215Z,0.44
2023-03-03T21:39:20.175Z,0.45
2023-03-03T21:45:40.296Z,0.45
2023-03-03T21:52:03.145Z,0.37
2023-03-03T21:58:23.187Z,0.38
2023-03-03T22:04:46.265Z,0.41
2023-03-03T22:11:06.332Z,0.46
2023-03-03T22:17:29.190Z,0.54
2023-03-03T22:23:49.189Z,0.65
2023-03-03T22:30:12.333Z,0.76
2023-03-03T22:36:32.244Z,0.86
2023-03-03T22:42:55.235Z,0.86
2023-03-03T22:49:15.246Z,0.91
2023-03-03T22:55:38.184Z,0.93
2023-03-03T23:19:52.204Z,1
2023-03-03T23:26:12.151Z,0.99
2023-03-03T23:32:35.245Z,1.03
2023-03-03T23:38:55.171Z,1.08
2023-03-03T23:45:18.204Z,1.18
2023-03-03T23:51:38.198Z,1.29
2023-03-03T23:58:01.257Z,1.28
